Time;durP1;ratioP1;P1;durP2;ratioP2;P2;SDS_P1;SDS_P2;PMS_P1;PMS_P2;Temp;Humidity;BMP_temperature;BMP_pressure;BME280_temperature;BME280_humidity;BME280_pressure;Samples;Min_cycle;Max_cycle;Signal;HPM_P1;HPM_P2
2021/10/03 00:02:25;;;;;;;4.25;2.45;;;9.00;91.90;;;;;;4921358;29;20051;-93
2021/10/03 00:05:14;;;;;;;6.72;3.22;;;9.00;92.10;;;;;;4895601;29;20071;-94
2021/10/03 00:07:59;;;;;;;1.92;1.65;;;9.00;92.20;;;;;;4904158;29;20028;-94
2021/10/03 00:11:02;;;;;;;;;;;;;;;;;;;;;
2021/10/03 00:13:57;;;;;;;2.67;1.67;;;9.00;92.20;;;;;;4926079;29;20115;-93
2021/10/03 00:16:25;;;;;;;3.90;1.80;;;8.90;92.50;;;;;;4909962;29;20083;-94
2021/10/03 00:19:22;;;;;;;;;;;;;;;;;;;;;
2021/10/03 00:21:51;;;;;;;1.67;1.58;;;8.90;92.40;;;;;;4921438;29;20456;-94
2021/10/03 00:24:26;;;;;;;3.17;2.03;;;8.90;92.40;;;;;;4908208;29;20032;-93
2021/10/03 00:27:15;;;;;;;2.67;1.70;;;8.80;92.50;;;;;;4912105;29;20031;-93
2021/10/03 00:29:45;;;;;;;3.55;2.25;;;8.80;92.50;;;;;;4926150;29;20457;-93
2021/10/03 00:32:31;;;;;;;4.53;1.95;;;8.80;92.90;;;;;;4909775;29;20087;-93
2021/10/03 00:35:23;;;;;;;;;;;;;;;;;;;;;
2021/10/03 00:38:04;;;;;;;3.10;1.60;;;8.70;92.90;;;;;;4942558;29;20021;-93
2021/10/03 00:40:46;;;;;;;3.38;1.33;;;8.80;93.00;;;;;;4925017;29;20123;-95
2021/10/03 00:43:43;;;;;;;2.10;1.58;;;8.70;93.10;;;;;;5007864;23;20050;-93
2021/10/03 00:46:30;;;;;;;;;;;;;;;;;;;;;
2021/10/03 00:49:06;;;;;;;2.60;1.95;;;8.70;93.10;;;;;;4981345;28;20022;-91
2021/10/03 00:51:50;;;;;;;3.78;2.08;;;8.70;93.30;;;;;;4964589;28;20011;-93
2021/10/03 00:58:05;;;;;;;3.75;2.25;;;8.70;93.50;;;;;;4913799;29;20267;-94
2021/10/03 01:01:12;;;;;;;2.25;1.50;;;8.70;93.50;;;;;;4884093;29;20061;-93
2021/10/03 01:07:25;;;;;;;;;;;;;;;;;;;;;
2021/10/03 01:10:01;;;;;;;3.08;1.95;;;8.80;93.70;;;;;;4961598;28;20471;-94
2021/10/03 01:16:39;;;;;;;2.47;1.73;;;8.80;94.00;;;;;;4948525;29;20043;-94
2021/10/03 01:25:56;;;;;;;1.77;1.42;;;8.80;94.10;;;;;;4958452;28;20425;-94
2021/10/03 01:28:25;;;;;;;2.03;1.75;;;8.80;94.00;;;;;;4941330;29;20038;-94
2021/10/03 01:31:05;;;;;;;2.33;1.98;;;8.80;94.10;;;;;;4940538;29;20059;-93
2021/10/03 01:34:02;;;;;;;;;;;;;;;;;;;;;
2021/10/03 01:39:43;;;;;;;;;;;;;;;;;;;;;
2021/10/03 01:42:44;;;;;;;;;;;;;;;;;;;;;
2021/10/03 01:45:36;;;;;;;2.22;1.63;;;8.70;94.50;;;;;;4952437;28;20504;-94
2021/10/03 01:48:39;;;;;;;4.13;1.95;;;8.70;94.70;;;;;;4938538;29;20035;-94
2021/10/03 01:51:29;;;;;;;3.10;2.40;;;8.70;94.90;;;;;;4954059;28;20043;-94
2021/10/03 01:54:18;;;;;;;5.05;2.40;;;8.70;94.80;;;;;;4941144;29;20073;-93
2021/10/03 01:57:33;;;;;;;;;;;;;;;;;;;;;
2021/10/03 01:59:56;;;;;;;3.40;1.98;;;8.70;94.80;;;;;;4954344;28;20090;-94
2021/10/03 02:02:37;;;;;;;;;;;;;;;;;;;;;
2021/10/03 02:08:44;;;;;;;;;;;;;;;;;;;;;
2021/10/03 02:11:19;;;;;;;2.97;1.90;;;8.60;94.90;;;;;;4978751;28;20039;-92
2021/10/03 02:13:47;;;;;;;2.50;1.63;;;8.60;94.90;;;;;;4963690;28;20015;-93
2021/10/03 02:19:46;;;;;;;;;;;;;;;;;;;;;
2021/10/03 02:22:20;;;;;;;2.92;1.83;;;8.60;95.10;;;;;;4980345;28;20020;-93
2021/10/03 02:24:55;;;;;;;2.85;1.75;;;8.50;95.10;;;;;;4963556;28;20038;-94
2021/10/03 02:27:34;;;;;;;;;;;;;;;;;;;;;
2021/10/03 02:30:15;;;;;;;3.28;2.40;;;8.50;95.20;;;;;;4957190;28;20027;-93
2021/10/03 02:33:25;;;;;;;2.85;1.98;;;8.50;95.30;;;;;;4940177;29;20513;-94
2021/10/03 02:36:10;;;;;;;2.83;1.80;;;8.50;95.50;;;;;;4959586;28;20478;-94
2021/10/03 02:38:48;;;;;;;3.72;1.90;;;8.50;95.50;;;;;;4939681;28;20114;-93
2021/10/03 02:41:27;;;;;;;2.38;2.17;;;8.50;95.40;;;;;;4941036;29;20031;-93
2021/10/03 02:44:07;;;;;;;1.90;1.65;;;8.50;95.40;;;;;;4940102;29;20071;-94
2021/10/03 02:47:12;;;;;;;4.63;1.60;;;8.50;95.60;;;;;;4939908;29;20463;-93
2021/10/03 02:53:38;;;;;;;2.50;2.30;;;8.40;95.80;;;;;;4923589;29;20031;-94
2021/10/03 02:56:59;;;;;;;;;;;;;;;;;;;;;
2021/10/03 03:00:01;;;;;;;;;;;;;;;;;;;;;
2021/10/03 03:02:53;;;;;;;4.75;2.28;;;8.60;96.10;;;;;;4951098;29;20039;-93
2021/10/03 03:05:50;;;;;;;5.10;2.38;;;8.60;95.90;;;;;;4944652;29;20086;-94
2021/10/03 03:08:19;;;;;;;5.53;3.38;;;8.60;96.00;;;;;;4943960;29;20023;-94
2021/10/03 03:14:13;;;;;;;;;;;;;;;;;;;;;
2021/10/03 03:17:19;;;;;;;3.45;2.03;;;8.50;96.10;;;;;;4960303;29;20034;-94
2021/10/03 03:20:14;;;;;;;5.07;2.22;;;8.50;96.00;;;;;;4958915;29;20094;-93
2021/10/03 03:22:42;;;;;;;2.97;1.95;;;8.50;96.00;;;;;;4951341;28;20107;-94
2021/10/03 03:28:36;;;;;;;;;;;;;;;;;;;;;
2021/10/03 03:34:39;;;;;;;;;;;;;;;;;;;;;
2021/10/03 03:40:08;;;;;;;;;;;;;;;;;;;;;
2021/10/03 03:43:07;;;;;;;;;;;;;;;;;;;;;
2021/10/03 03:46:25;;;;;;;2.97;2.10;;;8.30;96.40;;;;;;4982213;28;20023;-94
2021/10/03 03:49:29;;;;;;;3.20;2.20;;;8.30;96.50;;;;;;4981919;28;20023;-94
2021/10/03 03:52:14;;;;;;;4.53;2.20;;;8.20;96.50;;;;;;4965958;28;20078;-94
2021/10/03 03:54:53;;;;;;;;;;;;;;;;;;;;;
2021/10/03 03:57:52;;;;;;;2.88;1.65;;;8.20;96.50;;;;;;4982258;28;20042;-94
2021/10/03 04:00:45;;;;;;;5.22;2.33;;;8.20;96.50;;;;;;4955425;29;20093;-94
2021/10/03 04:03:50;;;;;;;;;;;;;;;;;;;;;
2021/10/03 04:06:28;;;;;;;3.80;2.10;;;8.10;96.60;;;;;;4963236;28;20119;-93
2021/10/03 04:09:30;;;;;;;;;;;;;;;;;;;;;
2021/10/03 04:12:13;;;;;;;3.13;2.33;;;8.10;96.70;;;;;;4963951;28;20102;-93
2021/10/03 04:14:53;;;;;;;;;;;;;;;;;;;;;
2021/10/03 04:17:51;;;;;;;3.92;2.55;;;8.10;96.90;;;;;;4961361;28;20118;-94
2021/10/03 04:20:52;;;;;;;3.92;2.20;;;8.20;97.00;;;;;;4955846;28;20070;-93
2021/10/03 04:23:23;;;;;;;3.33;2.00;;;8.20;97.00;;;;;;4943680;29;20039;-93
2021/10/03 04:26:19;;;;;;;;;;;;;;;;;;;;;
2021/10/03 04:29:00;;;;;;;3.10;2.70;;;8.30;97.10;;;;;;4960852;28;20113;-93
2021/10/03 04:31:46;;;;;;;3.88;2.40;;;8.30;97.20;;;;;;4941480;28;20031;-93
2021/10/03 04:34:45;;;;;;;;;;;;;;;;;;;;;
2021/10/03 04:37:50;;;;;;;5.50;2.63;;;8.50;97.30;;;;;;4949804;28;20045;-94
2021/10/03 04:40:27;;;;;;;4.60;2.65;;;8.60;97.30;;;;;;4939662;29;20035;-93
2021/10/03 04:43:44;;;;;;;4.93;2.60;;;8.70;97.30;;;;;;4939970;29;20087;-94
2021/10/03 04:47:20;;;;;;;4.72;3.15;;;8.80;97.20;;;;;;4940646;29;20386;-95
2021/10/03 04:50:04;;;;;;;;;;;;;;;;;;;;;
2021/10/03 04:52:45;;;;;;;3.92;2.80;;;9.00;97.00;;;;;;4958238;29;20037;-93
2021/10/03 04:55:28;;;;;;;2.95;2.13;;;9.10;96.90;;;;;;4941335;29;20081;-93
2021/10/03 04:58:07;;;;;;;2.80;1.80;;;9.20;96.90;;;;;;4941651;29;20035;-93
2021/10/03 05:00:43;;;;;;;;;;;;;;;;;;;;;
2021/10/03 05:03:09;;;;;;;3.28;2.15;;;9.40;96.70;;;;;;4961193;29;20204;-93
2021/10/03 05:05:44;;;;;;;3.13;2.78;;;9.50;96.70;;;;;;4943863;29;20074;-93
2021/10/03 05:08:12;;;;;;;4.63;2.45;;;9.60;96.60;;;;;;4940799;29;20058;-92
2021/10/03 05:10:42;;;;;;;3.30;2.25;;;9.70;96.50;;;;;;4940366;29;20089;-93
2021/10/03 05:13:33;;;;;;;5.07;2.88;;;9.80;96.40;;;;;;4940764;29;20027;-93
2021/10/03 05:16:00;;;;;;;5.10;3.33;;;9.80;96.30;;;;;;4941387;29;20023;-92
2021/10/03 05:18:30;;;;;;;6.63;2.55;;;9.90;96.20;;;;;;4942907;29;20363;-93
2021/10/03 05:21:06;;;;;;;5.25;2.78;;;10.00;96.10;;;;;;4950442;29;20066;-93
2021/10/03 05:23:40;;;;;;;9.05;3.60;;;10.10;96.00;;;;;;4959212;29;20059;-93
2021/10/03 05:26:06;;;;;;;5.70;3.45;;;10.20;95.80;;;;;;4957193;29;20099;-93
2021/10/03 05:28:32;;;;;;;4.78;3.75;;;10.30;95.60;;;;;;4961923;29;20012;-92
2021/10/03 05:31:06;;;;;;;4.47;3.65;;;10.40;95.50;;;;;;4962970;28;20018;-93
2021/10/03 05:33:35;;;;;;;3.78;3.15;;;10.40;95.40;;;;;;4963151;29;20018;-94
2021/10/03 05:36:24;;;;;;;;;;;;;;;;;;;;;
2021/10/03 05:42:24;;;;;;;5.88;3.08;;;10.70;95.10;;;;;;4946639;28;20048;-93
2021/10/03 05:45:13;;;;;;;5.38;3.55;;;10.80;94.90;;;;;;4940331;29;20094;-94
2021/10/03 05:51:12;;;;;;;;;;;11.00;94.60;;;;;;4945340;28;20027;-94
2021/10/03 05:54:01;;;;;;;3.42;2.97;;;11.10;94.60;;;;;;4946999;29;20001;-94
2021/10/03 05:56:42;;;;;;;6.55;3.40;;;11.20;94.20;;;;;;4958510;28;20027;-93
2021/10/03 06:02:18;;;;;;;;;;;;;;;;;;;;;
2021/10/03 06:05:16;;;;;;;6.97;4.38;;;11.50;93.60;;;;;;4960976;28;20126;-94
2021/10/03 06:08:11;;;;;;;7.15;4.25;;;11.60;93.30;;;;;;4948659;29;20035;-93
2021/10/03 06:10:42;;;;;;;6.50;3.95;;;11.60;93.20;;;;;;4936221;29;20039;-94
2021/10/03 06:13:12;;;;;;;4.50;2.88;;;11.70;93.10;;;;;;4939786;29;20030;-94
2021/10/03 06:16:03;;;;;;;6.25;3.83;;;11.80;93.10;;;;;;4923668;29;20043;-95
2021/10/03 06:18:41;;;;;;;5.10;3.95;;;11.90;92.90;;;;;;4946832;29;20035;-94
2021/10/03 06:21:27;;;;;;;5.55;3.38;;;12.00;92.70;;;;;;4959240;29;20073;-95
2021/10/03 06:23:53;;;;;;;5.95;4.30;;;12.20;92.50;;;;;;4959263;29;20055;-93
2021/10/03 06:29:56;;;;;;;6.30;3.90;;;12.30;91.90;;;;;;4901850;29;20037;-94
2021/10/03 06:32:32;;;;;;;6.97;4.78;;;12.40;91.60;;;;;;4876493;29;20033;-94
2021/10/03 06:35:07;;;;;;;5.82;4.43;;;12.40;91.40;;;;;;4885962;29;20041;-94
2021/10/03 06:41:31;;;;;;;5.80;3.97;;;12.50;91.10;;;;;;4916871;28;20130;-95
2021/10/03 06:43:38;;;;;;;7.90;3.80;;;12.60;91.00;;;;;;4948314;29;20047;-94
2021/10/03 06:46:07;;;;;;;;;;;12.60;90.90;;;;;;4956797;29;20054;-93
2021/10/03 06:49:22;;;;;;;5.03;3.50;;;12.60;90.70;;;;;;4943654;29;19906;-94
2021/10/03 06:52:25;;;;;;;6.40;4.32;;;12.70;90.30;;;;;;4955734;29;20031;-93
2021/10/03 06:54:58;;;;;;;5.60;4.40;;;12.80;90.20;;;;;;4963349;28;20003;-94
2021/10/03 06:58:23;;;;;;;;;;;;;;;;;;;;;
2021/10/03 07:01:17;;;;;;;5.55;3.80;;;12.80;90.00;;;;;;4975972;28;20030;-95
2021/10/03 07:03:47;;;;;;;6.03;4.07;;;12.80;90.10;;;;;;4964118;29;20024;-94
2021/10/03 07:06:38;;;;;;;6.53;4.53;;;12.80;89.90;;;;;;4956818;29;20023;-94
2021/10/03 07:13:12;;;;;;;;;;;;;;;;;;;;;
2021/10/03 07:19:10;;;;;;;;;;;;;;;;;;;;;
2021/10/03 07:22:08;;;;;;;;;;;;;;;;;;;;;
2021/10/03 07:24:53;;;;;;;6.35;3.88;;;13.00;89.00;;;;;;4959746;29;20035;-94
2021/10/03 07:30:44;;;;;;;11.30;4.93;;;13.10;88.30;;;;;;4943821;29;20062;-94
2021/10/03 07:33:33;;;;;;;4.55;4.00;;;13.10;87.90;;;;;;4940285;29;20032;-94
2021/10/03 07:36:09;;;;;;;;;;;;;;;;;;;;;
2021/10/03 07:38:45;;;;;;;6.25;4.80;;;13.20;87.70;;;;;;4959291;29;20039;-96
2021/10/03 07:41:44;;;;;;;7.15;4.70;;;13.20;87.40;;;;;;4942829;29;20034;-94
2021/10/03 07:44:18;;;;;;;5.28;3.80;;;13.30;87.20;;;;;;4953306;29;20043;-93
2021/10/03 07:50:54;;;;;;;;;;;;;;;;;;;;;
2021/10/03 07:53:15;;;;;;;5.72;4.03;;;13.40;86.70;;;;;;4956443;29;20082;-93
2021/10/03 07:55:48;;;;;;;5.55;3.88;;;13.50;86.30;;;;;;4941469;28;20032;-94
2021/10/03 07:58:14;;;;;;;7.72;4.00;;;13.60;86.00;;;;;;4940242;29;20037;-93
2021/10/03 08:01:21;;;;;;;6.32;4.43;;;13.60;85.70;;;;;;4939829;29;20023;-94
2021/10/03 08:04:30;;;;;;;;;;;;;;;;;;;;;
2021/10/03 08:07:08;;;;;;;7.57;3.95;;;13.70;84.50;;;;;;4934265;29;20048;-94
2021/10/03 08:09:47;;;;;;;;;;;;;;;;;;;;;
2021/10/03 08:12:18;;;;;;;5.97;3.25;;;13.90;83.70;;;;;;4958594;29;20023;-94
2021/10/03 08:14:44;;;;;;;6.57;4.18;;;13.90;83.10;;;;;;4945086;29;20453;-93
2021/10/03 08:17:18;;;;;;;5.45;3.80;;;13.90;83.00;;;;;;4941788;29;20019;-94
2021/10/03 08:19:47;;;;;;;6.63;3.95;;;14.00;83.00;;;;;;4942796;29;20034;-94
2021/10/03 08:22:16;;;;;;;4.65;3.15;;;14.00;82.70;;;;;;4942883;29;20066;-93
2021/10/03 08:25:13;;;;;;;6.53;4.30;;;14.00;82.70;;;;;;4941808;29;20042;-93
2021/10/03 08:27:41;;;;;;;5.50;3.78;;;14.00;82.10;;;;;;4916388;29;20048;-93
2021/10/03 08:30:18;;;;;;;5.25;3.80;;;14.00;82.20;;;;;;4935116;29;20106;-94
2021/10/03 08:32:47;;;;;;;8.25;5.22;;;14.00;82.30;;;;;;4940193;29;20043;-94
2021/10/03 08:35:25;;;;;;;6.45;4.25;;;14.10;82.00;;;;;;4947887;29;20066;-94
2021/10/03 08:38:02;;;;;;;5.60;4.05;;;14.10;82.10;;;;;;4963490;29;20023;-94
2021/10/03 08:40:50;;;;;;;6.03;3.78;;;14.10;82.20;;;;;;4964182;29;20043;-93
2021/10/03 08:43:59;;;;;;;4.13;3.17;;;14.20;81.80;;;;;;4958776;28;20051;-94
2021/10/03 08:46:59;;;;;;;;;;;;;;;;;;;;;
2021/10/03 08:50:11;;;;;;;3.58;3.13;;;14.30;81.10;;;;;;4950282;29;20064;-94
2021/10/03 08:52:35;;;;;;;3.65;3.03;;;14.40;80.80;;;;;;4950887;29;20107;-94
2021/10/03 08:55:40;;;;;;;;;;;;;;;;;;;;;
2021/10/03 08:58:06;;;;;;;4.13;3.15;;;14.60;80.40;;;;;;4936869;29;20091;-94
2021/10/03 09:00:55;;;;;;;7.22;4.22;;;14.70;79.60;;;;;;4925904;29;20059;-93
2021/10/03 09:03:52;;;;;;;5.70;2.80;;;14.70;78.30;;;;;;4926018;29;20039;-94
2021/10/03 09:06:57;;;;;;;3.67;3.17;;;14.70;77.90;;;;;;4937753;29;20070;-95
2021/10/03 09:09:55;;;;;;;4.80;3.35;;;14.80;76.70;;;;;;4920468;29;20035;-94
2021/10/03 09:13:19;;;;;;;3.63;3.20;;;14.80;76.80;;;;;;4921408;29;20035;-94
2021/10/03 09:16:09;;;;;;;4.03;3.08;;;14.80;76.00;;;;;;4936509;29;20040;-95
2021/10/03 09:21:59;;;;;;;3.83;3.00;;;14.90;71.20;;;;;;4931885;29;20039;-95
2021/10/03 09:24:28;;;;;;;3.83;3.17;;;14.90;71.30;;;;;;4922454;29;20040;-94
2021/10/03 09:27:14;;;;;;;4.15;2.88;;;15.00;70.50;;;;;;4921629;29;20114;-95
2021/10/03 09:29:43;;;;;;;6.85;2.72;;;15.00;69.40;;;;;;4921997;29;20119;-93
2021/10/03 18:44:11;;;;;;;;;;;11.30;79.40;;;;;;4956110;29;20061;-91
2021/10/03 18:46:38;;;;;;;6.95;4.95;;;11.30;79.80;;;;;;4942465;29;20004;-89
2021/10/03 18:49:06;;;;;;;9.73;5.30;;;11.30;80.90;;;;;;4942440;29;20027;-88
2021/10/03 18:51:32;;;;;;;9.52;5.93;;;11.40;80.90;;;;;;4951529;29;20038;-89
2021/10/03 18:54:42;;;;;;;9.50;6.10;;;11.40;81.60;;;;;;4947773;29;20058;-91
2021/10/03 18:57:08;;;;;;;9.77;5.25;;;11.40;81.70;;;;;;4975226;29;20031;-93
2021/10/03 18:59:35;;;;;;;7.75;4.82;;;11.40;81.90;;;;;;4959666;29;20034;-92
2021/10/03 19:02:03;;;;;;;9.73;4.68;;;11.40;81.90;;;;;;4947112;29;20055;-88
2021/10/03 19:04:29;;;;;;;7.80;5.43;;;11.40;82.00;;;;;;4945742;29;20051;-91
2021/10/03 19:06:55;;;;;;;9.80;5.18;;;11.40;82.30;;;;;;4958497;29;20107;-91
2021/10/03 19:09:22;;;;;;;10.13;5.68;;;11.40;82.60;;;;;;4940758;29;20070;-91
2021/10/03 19:11:48;;;;;;;9.45;5.95;;;11.40;83.70;;;;;;4926554;29;20038;-91
2021/10/03 19:14:17;;;;;;;13.60;6.63;;;11.30;83.60;;;;;;4958515;29;20430;-92
2021/10/03 19:16:44;;;;;;;8.65;4.65;;;11.30;83.70;;;;;;4959134;28;20038;-91
2021/10/03 19:19:10;;;;;;;12.25;6.10;;;11.30;83.90;;;;;;4941950;29;20059;-92
2021/10/03 19:21:36;;;;;;;7.40;5.43;;;11.30;85.00;;;;;;4955435;28;20090;-92
2021/10/03 19:24:01;;;;;;;19.88;5.63;;;11.30;84.90;;;;;;4969899;28;20041;-93
2021/10/03 19:26:31;;;;;;;7.50;4.43;;;11.30;85.50;;;;;;4971242;28;20050;-93
2021/10/03 19:28:57;;;;;;;7.82;4.55;;;11.30;85.50;;;;;;4962228;28;20026;-93
2021/10/03 19:31:23;;;;;;;10.20;4.93;;;11.30;85.70;;;;;;4979016;28;20102;-94
2021/10/03 19:34:18;;;;;;;9.27;5.45;;;11.30;86.00;;;;;;4960794;28;20062;-92
2021/10/03 19:36:44;;;;;;;9.50;5.53;;;11.30;85.80;;;;;;4952582;29;20074;-92
2021/10/03 19:39:19;;;;;;;5.30;3.33;;;11.30;85.90;;;;;;4941587;29;20055;-93
2021/10/03 19:41:45;;;;;;;11.07;5.40;;;11.30;85.90;;;;;;4941333;28;20035;-93
2021/10/03 19:44:16;;;;;;;11.68;5.15;;;11.30;86.50;;;;;;4941252;29;20062;-93
2021/10/03 19:46:42;;;;;;;6.22;4.43;;;11.30;86.50;;;;;;4938065;29;20053;-93
2021/10/03 19:49:08;;;;;;;6.40;3.97;;;11.20;86.80;;;;;;4941572;29;20549;-93
2021/10/03 19:51:35;;;;;;;5.88;3.38;;;11.20;86.50;;;;;;4942784;29;20035;-92
2021/10/03 19:54:02;;;;;;;84.53;34.67;;;11.20;86.40;;;;;;4938345;29;20119;-91
2021/10/03 19:56:29;;;;;;;48.55;18.00;;;11.20;86.60;;;;;;4939762;29;20085;-92
2021/10/03 19:58:55;;;;;;;32.45;11.73;;;11.20;86.20;;;;;;4957592;28;20178;-91
2021/10/03 20:01:21;;;;;;;20.60;9.05;;;11.20;86.10;;;;;;4941070;29;20482;-92
2021/10/03 20:03:49;;;;;;;13.85;6.85;;;11.20;85.90;;;;;;4940964;29;20474;-91
2021/10/03 20:06:15;;;;;;;10.07;5.82;;;11.20;85.70;;;;;;4939849;28;20042;-92
2021/10/03 20:08:43;;;;;;;11.30;4.85;;;11.20;85.60;;;;;;4938681;29;20487;-92
2021/10/03 20:11:09;;;;;;;7.47;5.50;;;11.20;85.40;;;;;;4934003;29;20095;-91
2021/10/03 20:13:35;;;;;;;9.35;4.50;;;11.20;85.20;;;;;;4965156;29;20055;-93
2021/10/03 20:16:01;;;;;;;9.80;4.80;;;11.20;85.20;;;;;;4943669;29;20363;-92
2021/10/03 20:18:27;;;;;;;9.40;4.40;;;11.20;85.10;;;;;;4940720;29;20109;-92
2021/10/03 20:20:53;;;;;;;6.43;3.50;;;11.20;85.00;;;;;;4957620;29;20106;-91
2021/10/03 20:23:19;;;;;;;7.40;4.03;;;11.20;84.90;;;;;;4940514;29;20023;-92
2021/10/03 20:25:45;;;;;;;6.75;4.05;;;11.20;85.50;;;;;;4939590;29;20058;-92
2021/10/03 20:28:11;;;;;;;5.82;4.05;;;11.20;84.80;;;;;;4939714;29;20545;-92
2021/10/03 20:30:40;;;;;;;4.97;3.72;;;11.20;84.80;;;;;;4940231;29;20069;-91
2021/10/03 20:33:11;;;;;;;5.72;3.65;;;11.20;84.90;;;;;;4939769;29;20027;-92
2021/10/03 20:35:38;;;;;;;5.45;4.03;;;11.20;85.10;;;;;;4939816;29;20437;-91
2021/10/03 20:38:04;;;;;;;6.93;3.42;;;11.10;85.30;;;;;;4940177;29;20027;-92
2021/10/03 20:40:31;;;;;;;6.82;3.50;;;11.10;85.50;;;;;;4957215;29;20027;-91
2021/10/03 20:43:02;;;;;;;6.70;3.20;;;11.20;85.90;;;;;;4939491;29;20059;-90
2021/10/03 20:45:31;;;;;;;5.60;3.60;;;11.20;85.60;;;;;;4939829;29;20046;-91
2021/10/03 20:48:00;;;;;;;7.05;3.42;;;11.20;85.30;;;;;;4937022;29;20035;-91
2021/10/03 20:50:27;;;;;;;6.68;4.00;;;11.20;85.10;;;;;;4934119;29;20064;-91
2021/10/03 20:52:53;;;;;;;7.55;3.90;;;11.10;84.90;;;;;;4939567;29;20031;-91
2021/10/03 20:55:21;;;;;;;7.18;4.28;;;11.10;84.90;;;;;;4955640;28;20042;-91
2021/10/03 20:57:47;;;;;;;5.50;3.65;;;11.00;85.20;;;;;;4938559;29;20035;-90
2021/10/03 21:00:14;;;;;;;5.57;2.70;;;11.00;85.60;;;;;;4939797;29;20030;-88
2021/10/03 21:02:41;;;;;;;5.00;3.35;;;11.00;85.80;;;;;;4938406;29;20079;-88
2021/10/03 21:05:07;;;;;;;5.45;3.38;;;11.00;85.90;;;;;;4937906;29;20039;-88
2021/10/03 21:07:33;;;;;;;4.80;3.00;;;11.00;85.90;;;;;;4938517;29;20038;-91
2021/10/03 21:09:59;;;;;;;4.07;2.45;;;11.00;86.00;;;;;;4937144;29;20373;-88
2021/10/03 21:12:25;;;;;;;3.28;2.15;;;11.10;86.00;;;;;;4933062;29;20039;-89
2021/10/03 21:14:51;;;;;;;4.03;2.60;;;11.10;85.90;;;;;;4937025;29;20028;-89
2021/10/03 21:17:17;;;;;;;4.20;2.60;;;11.10;85.90;;;;;;4920083;29;20024;-89
2021/10/03 21:19:42;;;;;;;5.32;2.92;;;11.10;85.80;;;;;;4937011;29;20066;-89
2021/10/03 21:22:09;;;;;;;4.72;2.42;;;11.10;86.00;;;;;;4933065;29;20082;-89
2021/10/03 21:24:35;;;;;;;4.10;2.70;;;11.10;86.10;;;;;;4938482;29;20047;-90
2021/10/03 21:27:02;;;;;;;4.57;2.95;;;11.20;86.10;;;;;;4955883;29;20023;-90
2021/10/03 21:29:27;;;;;;;3.42;2.53;;;11.20;86.00;;;;;;4938618;29;20078;-90
2021/10/03 21:31:53;;;;;;;3.55;2.50;;;11.20;86.20;;;;;;4930215;29;20027;-91
2021/10/03 21:34:19;;;;;;;3.88;2.33;;;11.20;86.20;;;;;;4933719;29;20059;-89
2021/10/03 21:36:45;;;;;;;4.65;2.38;;;11.30;86.20;;;;;;4920643;29;20063;-90
2021/10/03 21:39:12;;;;;;;3.65;2.63;;;11.30;86.20;;;;;;4904762;29;20028;-90
2021/10/03 21:41:40;;;;;;;4.50;2.47;;;11.30;86.10;;;;;;4921273;29;20108;-90
2021/10/03 21:44:07;;;;;;;3.47;2.17;;;11.30;86.40;;;;;;4919584;29;20063;-90
2021/10/03 21:46:33;;;;;;;4.55;2.97;;;11.30;86.30;;;;;;4935557;29;20028;-90
2021/10/03 21:48:59;;;;;;;6.00;2.42;;;11.40;86.10;;;;;;4935393;29;20035;-90
2021/10/03 21:51:26;;;;;;;5.63;2.53;;;11.40;86.10;;;;;;4936481;29;20036;-90
2021/10/03 21:53:51;;;;;;;3.30;2.22;;;11.40;86.20;;;;;;4938332;29;20057;-90
2021/10/03 21:56:17;;;;;;;2.83;2.45;;;11.50;86.20;;;;;;4943086;28;20530;-91
2021/10/03 21:58:43;;;;;;;3.25;2.22;;;11.50;86.00;;;;;;4957891;28;20130;-90
2021/10/03 22:01:10;;;;;;;2.50;1.80;;;11.60;85.80;;;;;;4957470;28;20117;-90
2021/10/03 22:03:38;;;;;;;2.20;1.77;;;11.60;85.70;;;;;;4957393;28;20400;-91
2021/10/03 22:06:06;;;;;;;3.92;2.30;;;11.60;85.50;;;;;;4960827;28;20033;-91
2021/10/03 22:08:33;;;;;;;3.92;2.13;;;11.60;85.20;;;;;;4967548;28;20030;-91
2021/10/03 22:11:00;;;;;;;3.10;1.98;;;11.70;85.20;;;;;;5003772;28;20026;-91
2021/10/03 22:13:27;;;;;;;4.38;2.92;;;11.60;85.20;;;;;;5005650;28;20038;-89
2021/10/03 22:15:53;;;;;;;2.72;2.22;;;11.70;85.30;;;;;;4972475;28;20458;-90
2021/10/03 22:18:18;;;;;;;3.38;2.60;;;11.70;85.30;;;;;;4949822;29;20031;-90
2021/10/03 22:20:46;;;;;;;2.90;2.30;;;11.70;85.20;;;;;;4944565;29;20031;-91
2021/10/03 22:23:13;;;;;;;3.25;2.28;;;11.70;85.10;;;;;;4944795;29;20023;-90
2021/10/03 22:25:39;;;;;;;3.40;2.17;;;11.70;85.10;;;;;;4961310;28;20031;-91
2021/10/03 22:28:07;;;;;;;2.83;2.05;;;11.70;85.00;;;;;;4944147;29;20034;-90
2021/10/03 22:30:34;;;;;;;2.50;1.80;;;11.70;85.10;;;;;;4945004;29;20031;-91
2021/10/03 22:33:00;;;;;;;3.85;2.22;;;11.70;85.10;;;;;;4944951;28;20382;-90
2021/10/03 22:35:25;;;;;;;2.95;2.08;;;11.60;85.20;;;;;;4944605;29;20032;-90
2021/10/03 22:37:52;;;;;;;2.35;1.75;;;11.60;85.50;;;;;;4944104;29;20384;-90
2021/10/03 22:40:18;;;;;;;3.38;2.72;;;11.60;85.50;;;;;;4961533;29;20027;-91
2021/10/03 22:42:44;;;;;;;3.05;1.90;;;11.60;85.50;;;;;;4944615;29;20055;-90
2021/10/03 22:45:11;;;;;;;6.28;2.03;;;11.60;85.50;;;;;;4944185;29;20125;-91
2021/10/03 22:47:38;;;;;;;3.38;2.13;;;11.60;85.60;;;;;;4944486;29;20039;-91
2021/10/03 22:50:06;;;;;;;2.60;2.00;;;11.60;85.60;;;;;;4945356;29;20023;-90
2021/10/03 22:52:32;;;;;;;6.03;2.85;;;11.50;85.70;;;;;;4944535;29;20027;-90
2021/10/03 22:54:57;;;;;;;1.70;1.60;;;11.50;86.10;;;;;;4944081;29;20038;-90
2021/10/03 22:57:23;;;;;;;2.42;1.80;;;11.40;86.20;;;;;;4944448;28;20039;-90
2021/10/03 22:59:49;;;;;;;2.60;2.15;;;11.40;86.30;;;;;;4944391;29;20386;-91
2021/10/03 23:02:15;;;;;;;2.63;2.15;;;11.40;86.60;;;;;;4964042;29;20095;-90
2021/10/03 23:04:40;;;;;;;2.75;2.40;;;11.40;86.70;;;;;;4946903;29;20046;-90
2021/10/03 23:07:07;;;;;;;3.05;2.47;;;11.30;86.80;;;;;;4944873;29;20459;-91
2021/10/03 23:09:34;;;;;;;2.20;1.88;;;11.30;87.00;;;;;;4943945;29;20062;-90
2021/10/03 23:12:01;;;;;;;2.83;1.80;;;11.30;87.30;;;;;;4944467;28;20538;-90
2021/10/03 23:14:27;;;;;;;2.50;2.15;;;11.20;87.60;;;;;;4961776;29;20114;-90
2021/10/03 23:16:53;;;;;;;3.63;2.13;;;11.20;87.50;;;;;;4943184;29;20450;-90
2021/10/03 23:19:19;;;;;;;3.20;2.58;;;11.20;87.70;;;;;;4957884;29;20046;-91
2021/10/03 23:21:45;;;;;;;3.17;2.17;;;11.20;87.70;;;;;;4958413;29;20027;-90
2021/10/03 23:24:11;;;;;;;3.63;2.00;;;11.20;87.90;;;;;;4940740;29;20070;-90
2021/10/03 23:26:38;;;;;;;3.03;2.35;;;11.20;88.60;;;;;;4923005;29;20450;-91
2021/10/03 23:29:05;;;;;;;3.45;2.47;;;11.20;88.20;;;;;;4939207;29;20079;-91
2021/10/03 23:31:33;;;;;;;3.92;2.08;;;11.10;88.30;;;;;;4933874;29;20054;-91
2021/10/03 23:34:00;;;;;;;2.50;2.22;;;11.10;88.30;;;;;;4958181;29;20138;-91
2021/10/03 23:36:26;;;;;;;4.47;2.80;;;11.10;88.40;;;;;;4941157;29;20062;-90
2021/10/03 23:38:52;;;;;;;4.13;2.25;;;11.00;88.50;;;;;;4941065;29;20062;-91
2021/10/03 23:41:17;;;;;;;2.97;2.25;;;11.00;88.70;;;;;;4940880;29;20094;-90
2021/10/03 23:43:43;;;;;;;2.60;1.95;;;11.00;89.00;;;;;;4957754;29;20192;-91
2021/10/03 23:46:09;;;;;;;3.25;2.60;;;10.90;89.10;;;;;;4940823;29;20031;-90
2021/10/03 23:48:35;;;;;;;3.53;2.42;;;10.90;89.30;;;;;;4941114;29;20077;-90
2021/10/03 23:51:04;;;;;;;3.72;2.55;;;10.90;89.50;;;;;;4941108;29;20027;-90
2021/10/03 23:53:29;;;;;;;5.18;3.05;;;10.90;89.60;;;;;;4940732;29;20028;-90
2021/10/03 23:55:55;;;;;;;3.45;2.65;;;10.80;89.70;;;;;;4940704;29;20027;-90
2021/10/03 23:58:21;;;;;;;3.30;2.65;;;10.80;89.90;;;;;;4940873;29;20042;-90
